Time;durP1;ratioP1;P1;durP2;ratioP2;P2;SDS_P1;SDS_P2;PMS_P1;PMS_P2;Temp;Humidity;BMP_temperature;BMP_pressure;BME280_temperature;BME280_humidity;BME280_pressure;Samples;Min_cycle;Max_cycle;Signal;HPM_P1;HPM_P2
2022/03/19 00:03:15;;;;;;;16.08;11.05;;;;;;;5.27;69.47;103342.06;8557172;33;20446;-73
2022/03/19 00:08:18;;;;;;;17.90;11.43;;;;;;;5.32;69.41;103350.03;8546095;33;20939;-73
2022/03/19 00:13:22;;;;;;;23.73;12.63;;;;;;;5.37;68.97;103347.28;8556635;33;20256;-73
2022/03/19 00:18:25;;;;;;;20.63;12.15;;;;;;;5.26;68.79;103334.94;8568477;33;20888;-73
2022/03/19 00:23:28;;;;;;;15.98;12.77;;;;;;;5.14;68.82;103356.44;8580208;33;20539;-73
2022/03/19 00:28:33;;;;;;;16.90;12.20;;;;;;;4.95;69.60;103350.38;8557093;33;20189;-73
2022/03/19 00:33:36;;;;;;;18.13;11.32;;;;;;;4.87;69.60;103346.03;8515484;33;20485;-73
2022/03/19 00:38:39;;;;;;;17.13;11.48;;;;;;;4.59;70.78;103347.16;8589246;33;20285;-74
2022/03/19 00:43:43;;;;;;;17.48;10.57;;;;;;;4.49;71.82;103347.25;8600837;33;20208;-74
2022/03/19 00:48:46;;;;;;;16.60;11.25;;;;;;;4.56;71.55;103352.53;8601879;33;21050;-73
2022/03/19 00:53:49;;;;;;;16.33;11.35;;;;;;;4.68;71.09;103343.53;8602848;33;20410;-73
2022/03/19 00:58:54;;;;;;;17.90;10.70;;;;;;;4.68;70.60;103353.31;8602889;33;20542;-73
2022/03/19 01:03:57;;;;;;;17.85;11.63;;;;;;;4.63;70.86;103353.34;8603259;33;20419;-73
2022/03/19 01:09:00;;;;;;;17.88;11.35;;;;;;;4.51;70.33;103345.47;8601188;33;20480;-73
2022/03/19 01:14:05;;;;;;;16.85;10.60;;;;;;;4.51;70.25;103349.00;8599489;33;20425;-73
2022/03/19 01:19:08;;;;;;;17.48;10.43;;;;;;;4.49;70.14;103345.47;8602160;33;20181;-73
2022/03/19 01:24:11;;;;;;;13.40;10.25;;;;;;;4.49;70.21;103350.78;8602308;33;20994;-73
2022/03/19 01:29:15;;;;;;;18.88;11.20;;;;;;;4.47;69.92;103336.63;8605208;33;20546;-73
2022/03/19 01:34:18;;;;;;;15.57;9.02;;;;;;;4.47;69.66;103341.97;8600550;33;20427;-73
2022/03/19 01:39:21;;;;;;;12.85;9.20;;;;;;;4.61;69.63;103328.53;8598871;33;20409;-73
2022/03/19 01:44:26;;;;;;;14.02;9.60;;;;;;;4.63;69.06;103321.38;8598853;33;20418;-73
2022/03/19 01:49:30;;;;;;;16.20;9.65;;;;;;;4.50;69.09;103312.66;8572921;33;20314;-73
2022/03/19 01:54:36;;;;;;;17.00;10.20;;;;;;;4.50;69.66;103309.06;8601876;33;20143;-73
2022/03/19 01:59:41;;;;;;;17.83;11.25;;;;;;;4.37;69.00;103305.66;8603685;33;20187;-73
2022/03/19 02:04:48;;;;;;;18.92;10.77;;;;;;;4.22;69.76;103301.31;8602317;33;20435;-73
2022/03/19 02:09:52;;;;;;;15.95;8.07;;;;;;;4.24;70.04;103296.88;8601843;33;20445;-73
2022/03/19 02:14:57;;;;;;;14.25;7.25;;;;;;;4.33;70.37;103301.22;8599719;33;21196;-73
2022/03/19 02:20:03;;;;;;;15.00;7.28;;;;;;;4.12;71.50;103287.22;8604082;33;20181;-73
2022/03/19 02:30:33;;;;;;;13.05;8.65;;;;;;;3.91;72.53;103285.59;8575831;33;20190;-73
2022/03/19 02:35:36;;;;;;;15.85;9.48;;;;;;;3.94;72.38;103287.34;8600173;33;20427;-73
2022/03/19 02:40:40;;;;;;;11.75;8.57;;;;;;;3.97;72.35;103279.34;8601723;33;20178;-73
2022/03/19 02:46:36;;;;;;;15.30;8.48;;;;;;;3.97;71.36;103279.34;8607826;33;20911;-73
2022/03/19 02:51:42;;;;;;;15.73;9.13;;;;;;;3.77;70.86;103291.91;8607971;33;20139;-73
2022/03/19 02:56:48;;;;;;;12.55;10.20;;;;;;;3.51;70.94;103292.91;8603395;33;20469;-73
2022/03/19 03:01:53;;;;;;;17.85;9.90;;;;;;;3.45;71.37;103284.97;8602186;33;20412;-73
2022/03/19 03:07:00;;;;;;;15.32;10.13;;;;;;;3.51;71.79;103271.66;8602487;33;20146;-73
2022/03/19 03:12:05;;;;;;;14.77;9.88;;;;;;;3.50;71.05;103284.06;8605653;33;20929;-73
2022/03/19 03:17:08;;;;;;;15.95;10.00;;;;;;;3.34;71.42;103281.50;8606518;33;20450;-73
2022/03/19 03:22:11;;;;;;;11.52;9.52;;;;;;;3.17;71.84;103271.81;8605254;33;20405;-73
2022/03/19 03:27:16;;;;;;;14.60;8.52;;;;;;;3.27;72.03;103275.34;8604048;33;20980;-73
2022/03/19 03:32:19;;;;;;;16.50;9.38;;;;;;;3.35;71.58;103276.19;8604444;33;20463;-73
2022/03/19 03:37:21;;;;;;;11.82;7.15;;;;;;;3.32;70.88;103269.97;8603326;33;20851;-73
2022/03/19 03:42:26;;;;;;;9.95;6.00;;;;;;;3.44;71.46;103272.59;8601600;33;20418;-73
2022/03/19 03:47:29;;;;;;;11.35;6.60;;;;;;;3.56;71.58;103266.31;8599907;33;20239;-73
2022/03/19 03:52:32;;;;;;;8.98;5.88;;;;;;;3.63;71.31;103279.56;8602292;33;20664;-73
2022/03/19 03:57:37;;;;;;;12.20;6.30;;;;;;;3.67;71.36;103270.66;8604498;33;20446;-73
2022/03/19 04:02:40;;;;;;;10.02;6.43;;;;;;;3.58;71.96;103273.41;8604485;33;20143;-72
2022/03/19 04:07:43;;;;;;;16.23;7.47;;;;;;;3.59;72.55;103264.53;8606540;33;21060;-73
2022/03/19 04:12:48;;;;;;;11.50;6.28;;;;;;;3.65;72.47;103272.47;8605610;33;21959;-73
2022/03/19 04:17:51;;;;;;;22.08;8.95;;;;;;;3.65;72.78;103260.97;8601979;33;20174;-73
2022/03/19 04:22:54;;;;;;;13.30;6.97;;;;;;;3.64;72.91;103265.38;8598728;33;20684;-73
2022/03/19 04:27:58;;;;;;;18.83;7.78;;;;;;;3.69;73.14;103268.91;8598687;33;20198;-73
2022/03/19 04:33:04;;;;;;;17.88;8.73;;;;;;;3.61;73.51;103272.50;8598094;33;20420;-73
2022/03/19 04:38:09;;;;;;;21.27;9.35;;;;;;;3.56;73.94;103258.34;8594973;33;20196;-73
2022/03/19 04:43:13;;;;;;;20.38;10.27;;;;;;;3.56;74.26;103256.56;8567015;33;20620;-73
2022/03/19 04:48:16;;;;;;;19.17;8.65;;;;;;;3.55;74.63;103257.47;8590756;33;20403;-73
2022/03/19 04:53:20;;;;;;;18.13;9.40;;;;;;;3.52;74.80;103261.94;8591074;33;20534;-73
2022/03/19 04:58:24;;;;;;;21.75;8.90;;;;;;;3.47;74.73;103265.47;8590565;33;20183;-73
2022/03/19 05:03:28;;;;;;;19.70;9.77;;;;;;;3.49;74.86;103266.38;8589919;33;20477;-73
2022/03/19 05:08:31;;;;;;;20.45;9.68;;;;;;;3.45;74.79;103266.38;8595357;33;20618;-73
2022/03/19 05:13:35;;;;;;;19.63;9.02;;;;;;;3.37;74.75;103266.41;8600018;33;20235;-73
2022/03/19 05:18:39;;;;;;;18.67;9.27;;;;;;;3.36;74.83;103269.09;8601067;33;21998;-73
2022/03/19 05:23:43;;;;;;;23.88;9.20;;;;;;;3.34;74.52;103278.84;8608681;33;20197;-73
2022/03/19 05:28:47;;;;;;;16.33;9.15;;;;;;;3.40;73.94;103273.50;8614637;33;20211;-73
2022/03/19 05:39:28;;;;;;;20.90;8.75;;;;;;;3.37;73.75;103276.16;8577096;33;20624;-73
2022/03/19 05:44:33;;;;;;;20.63;8.32;;;;;;;3.35;73.39;103281.50;8603187;33;20430;-73
2022/03/19 05:49:36;;;;;;;22.60;8.80;;;;;;;3.35;73.16;103281.50;8599558;33;21987;-73
2022/03/19 05:54:39;;;;;;;15.07;8.48;;;;;;;3.34;72.60;103284.16;8596078;33;20962;-73
2022/03/19 05:59:44;;;;;;;15.02;8.20;;;;;;;3.39;72.01;103280.59;8595452;33;20469;-72
2022/03/19 06:04:47;;;;;;;17.00;8.65;;;;;;;3.45;71.67;103291.19;8573684;33;20154;-73
2022/03/19 06:09:50;;;;;;;14.40;7.50;;;;;;;3.51;71.06;103292.91;8600080;33;20182;-73
2022/03/19 06:14:54;;;;;;;17.95;7.55;;;;;;;3.63;70.65;103302.63;8569581;33;20139;-73
2022/03/19 06:19:58;;;;;;;14.18;7.45;;;;;;;3.69;70.05;103292.81;8594545;33;20415;-73
2022/03/19 06:25:01;;;;;;;16.75;7.10;;;;;;;3.89;69.30;103299.78;8593393;33;20167;-73
2022/03/19 06:30:08;;;;;;;14.65;7.10;;;;;;;4.09;68.26;103292.56;8593152;33;20258;-73
2022/03/19 06:37:19;;;;;;;13.23;6.40;;;;;;;4.45;67.03;103292.28;8594373;33;20207;-73
2022/03/19 06:40:36;;;;;;;14.02;6.57;;;;;;;4.71;65.88;103298.22;8595511;33;20545;-73
2022/03/19 06:45:41;;;;;;;11.45;6.30;;;;;;;4.91;64.80;103297.13;8587521;33;20492;-73
2022/03/19 06:50:44;;;;;;;10.63;6.43;;;;;;;5.26;64.20;103291.41;8587126;33;20201;-72
2022/03/19 06:55:47;;;;;;;17.73;7.03;;;;;;;5.37;62.81;103284.16;8561708;33;20158;-73
2022/03/19 07:00:52;;;;;;;18.17;7.35;;;;;;;5.63;61.81;103283.81;8596440;33;20232;-73
2022/03/19 07:05:56;;;;;;;14.15;7.47;;;;;;;5.91;61.45;103278.06;8606384;33;20399;-73
2022/03/19 07:11:19;;;;;;;12.32;6.63;;;;;;;6.15;60.21;103284.81;8616141;33;20224;-73
2022/03/19 07:16:23;;;;;;;14.23;5.82;;;;;;;6.73;59.82;103277.56;8604495;33;20243;-72
2022/03/19 07:21:26;;;;;;;11.50;6.43;;;;;;;7.13;57.97;103287.50;8600066;33;20955;-73
2022/03/19 07:26:32;;;;;;;13.77;5.97;;;;;;;7.25;56.76;103280.09;8598521;33;20421;-73
2022/03/19 07:31:37;;;;;;;9.68;5.32;;;;;;;7.34;56.08;103279.03;8599997;33;20445;-73
2022/03/19 07:36:41;;;;;;;11.55;5.90;;;;;;;7.83;55.60;103279.72;8595277;33;20539;-73
2022/03/19 07:41:48;;;;;;;11.98;5.40;;;;;;;7.77;54.27;103266.50;8587558;33;20136;-73
2022/03/19 07:46:52;;;;;;;12.35;5.28;;;;;;;8.03;54.47;103268.53;8547440;33;20236;-73
2022/03/19 07:51:56;;;;;;;14.32;6.03;;;;;;;8.49;53.36;103267.38;8537645;33;20453;-74
2022/03/19 07:56:59;;;;;;;10.32;4.82;;;;;;;8.83;51.93;103257.53;8588359;33;21261;-72
2022/03/19 08:02:05;;;;;;;12.13;5.03;;;;;;;8.81;51.15;103250.44;8594511;33;20432;-72
2022/03/19 08:07:08;;;;;;;10.55;4.65;;;;;;;8.83;51.14;103248.56;8605926;33;20174;-72
2022/03/19 08:12:11;;;;;;;13.35;4.97;;;;;;;9.01;50.54;103248.06;8604569;33;20497;-71
2022/03/19 08:17:16;;;;;;;13.68;5.13;;;;;;;8.94;50.42;103240.22;8605047;33;20476;-72
2022/03/19 08:22:19;;;;;;;8.88;4.78;;;;;;;8.98;50.15;103250.81;8606832;33;22186;-72
2022/03/19 08:27:25;;;;;;;7.78;4.03;;;;;;;8.72;49.56;103245.31;8598723;33;20414;-72
2022/03/19 08:32:30;;;;;;;9.10;4.10;;;;;;;8.96;50.67;103246.44;8604689;33;20427;-72
2022/03/19 08:37:34;;;;;;;11.95;5.03;;;;;;;9.62;48.70;103244.44;8603488;33;20745;-72
2022/03/19 08:42:38;;;;;;;9.38;3.85;;;;;;;9.45;48.61;103235.09;8596870;33;20238;-72
2022/03/19 08:47:43;;;;;;;7.25;4.10;;;;;;;9.51;48.67;103229.53;8592469;33;21074;-73
2022/03/19 08:52:46;;;;;;;13.27;4.80;;;;;;;9.77;48.07;103233.22;8537867;33;20152;-72
2022/03/19 08:57:49;;;;;;;10.20;4.80;;;;;;;10.01;46.36;103225.28;8577341;33;20585;-72
2022/03/19 09:02:55;;;;;;;8.70;4.13;;;;;;;9.93;47.66;103220.19;8594070;33;20159;-73
2022/03/19 09:07:58;;;;;;;8.98;4.05;;;;;;;10.63;44.84;103211.47;8594031;33;20569;-73
2022/03/19 09:13:03;;;;;;;9.75;4.97;;;;;;;10.57;44.81;103211.69;8591690;33;20407;-72
2022/03/19 09:18:08;;;;;;;10.60;4.55;;;;;;;10.79;45.06;103207.28;8590144;33;20503;-73
2022/03/19 09:23:11;;;;;;;9.45;4.03;;;;;;;10.92;44.29;103199.63;8591929;33;20194;-72
2022/03/19 09:28:14;;;;;;;17.02;4.93;;;;;;;10.43;43.45;103189.81;8588988;33;21634;-72
2022/03/19 09:33:19;;;;;;;12.30;4.35;;;;;;;10.81;42.73;103205.41;8591751;33;20526;-72
2022/03/19 09:38:22;;;;;;;6.45;3.78;;;;;;;11.42;41.38;103180.66;8591142;33;20638;-72
2022/03/19 09:43:27;;;;;;;7.38;3.25;;;;;;;11.55;40.59;103189.13;8593625;33;20444;-72
2022/03/19 09:48:31;;;;;;;5.45;2.55;;;;;;;11.52;39.35;103180.28;8594184;33;20544;-73
2022/03/19 09:53:34;;;;;;;4.55;2.75;;;;;;;11.73;39.22;103177.56;8597621;33;20202;-73
2022/03/19 09:58:57;;;;;;;8.27;3.10;;;;;;;11.48;40.18;103164.25;8601558;33;20442;-74
2022/03/19 10:04:04;;;;;;;8.10;3.30;;;;;;;11.73;39.14;103169.50;8592667;33;20414;-73
2022/03/19 10:09:07;;;;;;;6.72;2.80;;;;;;;12.09;37.84;103165.28;8593154;33;20195;-73
2022/03/19 10:14:10;;;;;;;12.95;4.03;;;;;;;12.11;39.44;103156.19;8568530;33;20174;-73
2022/03/19 10:19:14;;;;;;;5.70;2.42;;;;;;;12.58;37.76;103152.34;8553807;33;20683;-73
2022/03/19 10:24:23;;;;;;;4.70;2.58;;;;;;;12.68;36.85;103134.81;8568307;33;21918;-73
2022/03/19 10:29:31;;;;;;;5.30;2.60;;;;;;;12.88;36.78;103135.69;8579086;33;20231;-72
2022/03/19 10:34:40;;;;;;;6.38;2.80;;;;;;;13.36;36.34;103121.66;8588819;33;20422;-72
2022/03/19 10:39:47;;;;;;;5.93;3.05;;;;;;;13.30;36.00;103123.75;8541786;33;21424;-71
2022/03/19 10:44:52;;;;;;;5.93;2.50;;;;;;;13.36;35.94;103107.28;8544231;33;20210;-72
2022/03/19 10:50:02;;;;;;;7.60;3.17;;;;;;;13.58;36.88;103113.38;8542330;33;20152;-73
2022/03/19 10:55:07;;;;;;;4.57;2.50;;;;;;;14.14;34.69;103100.56;8541299;33;20569;-74
2022/03/19 11:00:12;;;;;;;3.88;2.35;;;;;;;14.22;33.99;103094.75;8545875;33;20417;-73
2022/03/19 11:05:21;;;;;;;5.88;2.72;;;;;;;13.84;34.94;103092.25;8547072;33;20476;-74
2022/03/19 11:10:24;;;;;;;6.88;2.28;;;;;;;13.97;34.24;103073.56;8546065;33;20318;-73
2022/03/19 11:15:34;;;;;;;2.75;2.13;;;;;;;14.44;33.47;103068.31;8548287;33;20178;-74
2022/03/19 11:20:40;;;;;;;3.85;2.35;;;;;;;14.52;33.69;103062.50;8606266;33;20417;-72
2022/03/19 11:25:51;;;;;;;5.70;2.75;;;;;;;14.99;34.14;103061.63;8574711;33;20523;-72
2022/03/19 11:31:03;;;;;;;4.57;2.20;;;;;;;15.77;31.80;103043.47;8601209;33;20577;-73
2022/03/19 11:36:11;;;;;;;3.78;2.20;;;;;;;16.27;30.73;103039.47;8602585;33;20456;-73
2022/03/19 11:41:22;;;;;;;4.88;2.15;;;;;;;16.41;29.79;103032.31;8609185;33;20325;-73
2022/03/19 11:46:25;;;;;;;6.82;2.30;;;;;;;16.22;30.55;103033.44;8619420;33;20648;-74
2022/03/19 11:51:38;;;;;;;5.22;2.13;;;;;;;16.91;29.78;103028.13;8617889;33;20160;-73
2022/03/19 11:57:08;;;;;;;3.75;1.23;;;;;;;15.96;29.51;103021.50;8617238;33;20246;-72
2022/03/19 12:02:14;;;;;;;3.60;2.15;;;;;;;15.23;30.68;103000.63;8618308;33;20183;-73
2022/03/19 12:07:47;;;;;;;4.47;2.42;;;;;;;14.97;31.91;103001.28;8605141;33;20884;-74
2022/03/19 12:12:50;;;;;;;3.20;1.83;;;;;;;15.71;31.05;102989.63;8603959;33;20147;-73
2022/03/19 12:17:53;;;;;;;5.80;1.85;;;;;;;16.40;30.19;102974.47;8613822;33;20179;-73
2022/03/19 12:22:57;;;;;;;5.97;2.20;;;;;;;16.23;29.72;102966.50;8604110;33;20282;-72
2022/03/19 12:28:00;;;;;;;4.20;1.92;;;;;;;16.19;30.25;102941.41;8602317;33;20417;-72
2022/03/19 12:33:03;;;;;;;3.58;2.10;;;;;;;16.15;30.54;102939.88;8602641;33;20467;-74
2022/03/19 12:38:09;;;;;;;4.20;2.20;;;;;;;16.23;29.90;102934.81;8596895;33;20403;-71
2022/03/19 12:43:12;;;;;;;8.68;2.60;;;;;;;17.01;29.36;102909.78;8597581;33;20187;-74
2022/03/19 12:48:18;;;;;;;4.53;1.95;;;;;;;17.56;28.79;102896.91;8594514;33;20223;-74
2022/03/19 12:53:32;;;;;;;4.97;2.25;;;;;;;16.89;29.48;102899.72;8598263;33;20407;-74
2022/03/19 12:58:39;;;;;;;3.72;1.95;;;;;;;15.93;31.12;102891.56;8595916;33;20874;-74
2022/03/19 13:03:43;;;;;;;4.60;1.92;;;;;;;16.43;30.80;102873.88;8591691;33;20237;-72
2022/03/19 13:08:49;;;;;;;4.70;2.17;;;;;;;17.65;29.70;102869.94;8595701;33;20186;-74
2022/03/19 13:13:52;;;;;;;4.35;2.50;;;;;;;17.08;29.44;102866.75;8595202;33;20888;-73
2022/03/19 13:19:01;;;;;;;5.55;2.10;;;;;;;15.08;31.42;102868.00;8568833;33;20414;-73
2022/03/19 13:24:06;;;;;;;2.42;1.67;;;;;;;12.51;34.16;102857.88;8594877;33;20426;-71
2022/03/19 13:29:12;;;;;;;5.53;2.50;;;;;;;11.52;36.56;102851.84;8597246;33;20541;-73
2022/03/19 13:34:19;;;;;;;4.22;1.88;;;;;;;10.92;37.73;102843.75;8595210;33;20143;-72
2022/03/19 13:39:27;;;;;;;8.82;2.15;;;;;;;11.98;36.58;102830.81;8594718;33;20249;-71
2022/03/19 13:44:32;;;;;;;6.10;1.90;;;;;;;13.66;32.62;102810.47;8591985;33;20192;-73
2022/03/19 13:49:38;;;;;;;3.22;2.05;;;;;;;13.33;34.12;102799.63;8587653;33;20876;-73
2022/03/19 13:54:47;;;;;;;5.20;1.80;;;;;;;17.38;28.61;102784.97;8586653;33;20151;-73
2022/03/19 13:59:50;;;;;;;3.33;1.75;;;;;;;19.73;26.38;102773.19;8585923;33;20245;-73
2022/03/19 14:04:53;;;;;;;4.38;1.83;;;;;;;17.64;28.01;102775.78;8569388;33;20179;-73
2022/03/19 14:09:59;;;;;;;5.28;2.38;;;;;;;13.59;32.48;102780.22;8594972;33;20316;-73
2022/03/19 14:15:06;;;;;;;6.10;1.77;;;;;;;11.31;37.81;102781.06;8598781;33;20400;-73
2022/03/19 14:20:12;;;;;;;2.65;1.90;;;;;;;10.77;38.92;102775.34;8607162;33;20584;-73
2022/03/19 14:25:17;;;;;;;3.20;1.92;;;;;;;15.17;33.02;102765.44;8605414;33;20416;-73
2022/03/19 14:30:21;;;;;;;4.38;2.70;;;;;;;17.27;29.21;102745.00;8603820;33;20419;-72
2022/03/19 14:35:50;;;;;;;5.40;1.90;;;;;;;17.64;29.06;102745.88;8599650;33;20406;-73
2022/03/19 14:40:58;;;;;;;5.97;2.00;;;;;;;13.75;32.81;102741.53;8599283;33;20465;-73
2022/03/19 14:46:04;;;;;;;7.20;2.78;;;;;;;11.63;35.86;102740.03;8609507;33;20469;-72
2022/03/19 14:51:08;;;;;;;6.32;2.42;;;;;;;12.62;35.31;102718.94;8602832;33;20572;-72
2022/03/19 14:56:15;;;;;;;4.80;1.80;;;;;;;14.86;32.74;102708.78;8599085;33;20204;-73
2022/03/19 15:01:18;;;;;;;4.43;2.33;;;;;;;15.07;31.91;102698.44;8601452;33;20214;-72
2022/03/19 15:06:24;;;;;;;3.15;1.77;;;;;;;15.36;32.20;102700.19;8600734;33;20222;-73
2022/03/19 15:11:28;;;;;;;4.15;2.10;;;;;;;15.30;31.52;102691.53;8603066;33;20155;-72
2022/03/19 15:16:31;;;;;;;2.65;1.98;;;;;;;15.02;31.54;102688.75;8573984;33;21283;-72
2022/03/19 15:21:40;;;;;;;3.85;1.67;;;;;;;13.00;33.25;102669.19;8613042;33;21271;-73
2022/03/19 15:26:46;;;;;;;3.88;1.48;;;;;;;12.08;34.67;102682.13;8594638;33;20566;-72
2022/03/19 15:31:50;;;;;;;2.92;1.52;;;;;;;10.93;36.90;102682.31;8600614;33;20404;-72
2022/03/19 15:36:53;;;;;;;4.72;1.67;;;;;;;10.34;38.45;102683.19;8623711;33;20217;-73
2022/03/19 15:41:57;;;;;;;3.17;1.58;;;;;;;9.97;39.49;102684.75;8627030;33;20825;-73
2022/03/19 15:47:00;;;;;;;1.95;1.67;;;;;;;9.63;40.11;102683.44;8627860;33;20429;-73
2022/03/19 15:52:07;;;;;;;6.00;2.05;;;;;;;11.07;37.96;102670.91;8616577;33;20132;-73
2022/03/19 15:57:11;;;;;;;2.92;1.65;;;;;;;11.49;36.36;102672.50;8597761;33;20151;-74
2022/03/19 16:02:14;;;;;;;3.55;1.70;;;;;;;11.59;36.61;102659.47;8619434;33;20502;-72
2022/03/19 16:07:17;;;;;;;4.57;2.25;;;;;;;11.68;36.23;102669.78;8625246;33;20511;-73
2022/03/19 16:12:22;;;;;;;3.05;1.60;;;;;;;11.83;35.79;102655.56;8624628;33;20494;-72
2022/03/19 16:17:25;;;;;;;4.40;1.70;;;;;;;12.06;35.96;102649.00;8612386;33;20400;-72
2022/03/19 16:22:28;;;;;;;3.67;1.83;;;;;;;11.77;35.67;102641.56;8617683;33;20501;-73
2022/03/19 16:27:34;;;;;;;2.67;1.63;;;;;;;11.91;35.73;102639.88;8605469;33;20417;-73
2022/03/19 16:32:37;;;;;;;3.90;1.73;;;;;;;11.76;36.11;102632.56;8605222;33;20431;-73
2022/03/19 16:37:40;;;;;;;3.97;1.70;;;;;;;11.46;36.51;102629.59;8603129;33;20470;-72
2022/03/19 16:42:45;;;;;;;4.45;1.83;;;;;;;11.32;36.61;102624.88;8603508;33;20425;-72
2022/03/19 16:47:48;;;;;;;2.55;1.50;;;;;;;11.19;37.37;102626.44;8599462;33;20212;-72
2022/03/19 16:52:51;;;;;;;3.05;1.58;;;;;;;10.47;38.14;102636.00;8605272;33;21050;-73
2022/03/19 16:57:56;;;;;;;3.88;2.55;;;;;;;10.03;38.59;102637.97;8600714;33;20430;-72
2022/03/19 17:02:59;;;;;;;3.65;1.90;;;;;;;9.93;38.54;102643.75;8605461;33;20191;-72
2022/03/19 17:08:02;;;;;;;6.78;1.80;;;;;;;9.31;39.16;102623.03;8604053;33;20418;-72
2022/03/19 17:13:08;;;;;;;4.70;1.88;;;;;;;9.66;39.11;102635.00;8603036;33;20155;-72
2022/03/19 17:18:12;;;;;;;2.58;1.50;;;;;;;9.78;39.40;102630.06;8602326;33;20441;-72
2022/03/19 17:23:15;;;;;;;3.47;1.88;;;;;;;9.45;39.60;102630.50;8602201;33;20193;-73
2022/03/19 17:28:20;;;;;;;4.57;1.60;;;;;;;9.11;40.42;102631.00;8602620;33;20519;-73
2022/03/19 17:33:23;;;;;;;3.25;1.98;;;;;;;9.01;40.59;102636.69;8602380;33;20430;-73
2022/03/19 17:38:27;;;;;;;4.90;2.15;;;;;;;8.92;40.91;102628.16;8602115;33;20423;-73
2022/03/19 17:43:32;;;;;;;2.35;1.85;;;;;;;8.76;40.69;102618.00;8604668;33;20984;-72
2022/03/19 17:48:35;;;;;;;5.90;2.38;;;;;;;8.73;41.05;102622.63;8601125;33;20596;-73
2022/03/19 17:53:38;;;;;;;5.07;2.20;;;;;;;8.91;40.94;102618.34;8602181;33;20196;-72
2022/03/19 17:58:42;;;;;;;5.13;1.92;;;;;;;8.60;41.19;102617.72;8600640;33;20651;-72
2022/03/19 18:03:45;;;;;;;3.83;2.30;;;;;;;8.53;41.98;102626.03;8603047;33;21880;-72
2022/03/19 18:08:49;;;;;;;2.65;2.03;;;;;;;8.43;41.82;102625.47;8604500;33;20424;-72
2022/03/19 18:13:53;;;;;;;3.88;2.60;;;;;;;8.17;42.41;102619.25;8600613;33;20136;-72
2022/03/19 18:18:59;;;;;;;4.07;2.15;;;;;;;8.08;42.28;102621.38;8594909;33;20924;-73
2022/03/19 18:24:03;;;;;;;5.30;2.58;;;;;;;8.17;42.62;102632.66;8587364;33;20431;-71
2022/03/19 18:29:07;;;;;;;3.58;2.60;;;;;;;8.05;42.87;102627.72;8598096;33;20206;-72
2022/03/19 18:34:11;;;;;;;4.55;2.47;;;;;;;8.25;42.52;102632.34;8604095;33;20444;-72
2022/03/19 18:39:14;;;;;;;3.90;2.53;;;;;;;8.17;43.11;102629.06;8600369;33;20128;-72
2022/03/19 18:44:18;;;;;;;7.78;3.10;;;;;;;8.07;43.01;102625.84;8601541;33;20474;-71
2022/03/19 18:49:21;;;;;;;4.50;2.53;;;;;;;8.10;42.88;102609.69;8600334;33;20427;-72
2022/03/19 18:54:24;;;;;;;4.65;2.60;;;;;;;7.68;43.76;102612.91;8602759;33;21059;-72
2022/03/19 18:59:32;;;;;;;5.03;2.40;;;;;;;7.61;44.12;102619.38;8607158;33;20963;-72
2022/03/19 19:04:35;;;;;;;5.28;2.78;;;;;;;7.83;43.73;102616.88;8612691;33;20469;-72
2022/03/19 19:09:39;;;;;;;5.75;3.92;;;;;;;7.62;44.02;102613.09;8596597;33;20426;-72
2022/03/19 19:14:44;;;;;;;7.30;3.38;;;;;;;7.63;44.45;102616.69;8624715;33;20431;-72
2022/03/19 19:19:47;;;;;;;9.02;3.72;;;;;;;7.70;44.55;102613.72;8624715;33;20139;-72
2022/03/19 19:24:50;;;;;;;8.60;3.90;;;;;;;7.80;44.45;102608.94;8626165;33;20147;-72
2022/03/19 19:29:55;;;;;;;7.97;2.92;;;;;;;7.72;44.80;102611.00;8626745;33;20189;-72
2022/03/19 19:34:58;;;;;;;7.30;3.28;;;;;;;7.57;45.29;102608.84;8626730;33;20444;-72
2022/03/19 19:40:02;;;;;;;5.40;3.92;;;;;;;7.60;45.43;102617.66;8624338;33;20409;-72
2022/03/19 19:45:07;;;;;;;6.20;3.33;;;;;;;7.47;45.99;102611.81;8629956;33;20284;-72
2022/03/19 19:50:10;;;;;;;6.32;4.07;;;;;;;7.33;46.66;102613.22;8622964;33;20228;-74
2022/03/19 19:55:14;;;;;;;9.10;5.30;;;;;;;7.34;46.71;102618.47;8609918;33;20443;-73
2022/03/19 20:00:22;;;;;;;8.98;5.05;;;;;;;7.31;46.82;102620.38;8609311;33;20497;-73
2022/03/19 20:05:27;;;;;;;11.70;6.75;;;;;;;7.06;46.95;102614.00;8609742;33;20602;-73
2022/03/19 20:10:30;;;;;;;16.77;9.95;;;;;;;6.77;45.19;102605.97;8601943;33;20320;-73
2022/03/19 20:15:35;;;;;;;28.58;13.55;;;;;;;6.76;44.93;102612.25;8555219;33;20183;-73
2022/03/19 20:20:39;;;;;;;23.48;13.88;;;;;;;6.50;45.62;102578.25;8547997;33;20446;-73
2022/03/19 20:25:57;;;;;;;25.30;17.08;;;;;;;6.40;46.31;102586.56;8545505;33;20423;-73
2022/03/19 20:31:02;;;;;;;26.45;17.17;;;;;;;6.07;47.47;102577.69;8550455;33;20586;-73
2022/03/19 20:36:08;;;;;;;26.23;16.45;;;;;;;6.31;47.52;102584.16;8549358;33;20392;-73
2022/03/19 20:41:12;;;;;;;28.15;18.00;;;;;;;6.14;48.08;102579.28;8546840;33;20477;-72
2022/03/19 20:46:16;;;;;;;27.90;18.17;;;;;;;6.04;48.44;102568.91;8543327;33;20638;-72
2022/03/19 20:51:19;;;;;;;30.38;17.50;;;;;;;5.92;48.64;102572.75;8544419;33;20453;-72
2022/03/19 20:56:22;;;;;;;33.20;18.30;;;;;;;5.72;48.16;102570.63;8543450;33;20875;-72
2022/03/19 21:01:27;;;;;;;34.00;20.27;;;;;;;5.72;48.27;102560.81;8545873;33;20314;-72
2022/03/19 21:06:30;;;;;;;33.95;19.50;;;;;;;5.73;48.82;102561.69;8545857;33;20306;-72
2022/03/19 21:11:39;;;;;;;34.50;19.92;;;;;;;5.78;48.84;102553.59;8545847;33;20410;-72
2022/03/19 21:16:45;;;;;;;32.55;21.08;;;;;;;5.74;49.02;102560.81;8544907;33;21058;-73
2022/03/19 21:21:49;;;;;;;37.65;21.27;;;;;;;5.58;49.40;102554.13;8545101;33;20222;-72
2022/03/19 21:26:52;;;;;;;37.08;20.40;;;;;;;5.60;49.67;102530.97;8541372;33;20403;-72
2022/03/19 21:31:57;;;;;;;34.50;20.30;;;;;;;5.53;49.51;102524.88;8532445;33;20914;-72
2022/03/19 21:37:00;;;;;;;34.80;21.23;;;;;;;5.39;50.18;102533.25;8541528;33;20506;-72
2022/03/19 21:42:04;;;;;;;32.35;21.45;;;;;;;5.60;49.73;102528.28;8537640;33;20147;-72
2022/03/19 21:47:08;;;;;;;37.20;20.98;;;;;;;5.43;50.00;102523.38;8513779;33;20405;-71
2022/03/19 21:52:12;;;;;;;34.72;20.40;;;;;;;5.35;50.47;102518.25;8544103;33;21787;-72
2022/03/19 21:57:15;;;;;;;33.15;21.95;;;;;;;5.26;50.63;102510.47;8540462;33;20341;-72
2022/03/19 22:02:20;;;;;;;35.20;21.80;;;;;;;5.31;50.47;102503.25;8541784;33;20225;-73
2022/03/19 22:07:24;;;;;;;35.47;20.48;;;;;;;5.41;50.62;102496.78;8542706;33;20411;-73
2022/03/19 22:12:47;;;;;;;35.22;21.55;;;;;;;5.12;50.87;102499.28;8562858;33;20478;-72
2022/03/19 22:18:03;;;;;;;33.65;20.38;;;;;;;5.15;50.82;102486.75;8545785;33;20421;-72
2022/03/19 22:23:07;;;;;;;33.92;19.45;;;;;;;5.11;51.11;102482.44;8552802;33;20452;-72
2022/03/19 22:28:12;;;;;;;37.42;21.40;;;;;;;5.15;51.03;102489.41;8560755;33;20426;-72
2022/03/19 22:33:17;;;;;;;36.63;21.75;;;;;;;5.03;50.86;102479.94;8565651;33;20561;-73
2022/03/19 22:38:20;;;;;;;33.72;20.75;;;;;;;5.06;50.96;102473.66;8574760;33;20390;-71
2022/03/19 22:43:23;;;;;;;32.88;19.85;;;;;;;5.03;51.18;102468.44;8573914;33;20223;-73
2022/03/19 22:48:28;;;;;;;36.85;20.55;;;;;;;4.90;51.08;102465.13;8573991;33;20205;-73
2022/03/19 22:53:31;;;;;;;33.88;21.23;;;;;;;4.95;49.94;102452.59;8575101;33;20498;-72
2022/03/19 22:58:34;;;;;;;36.42;20.50;;;;;;;4.96;49.55;102445.47;8573837;33;20474;-73
2022/03/19 23:03:41;;;;;;;36.85;21.20;;;;;;;4.72;49.84;102438.97;8574394;33;20299;-72
2022/03/19 23:08:47;;;;;;;36.47;20.33;;;;;;;4.75;49.64;102438.91;8574105;33;20412;-72
2022/03/19 23:13:50;;;;;;;34.30;19.52;;;;;;;4.69;49.20;102431.94;8574971;33;20346;-73
2022/03/19 23:18:55;;;;;;;35.10;20.03;;;;;;;4.51;49.39;102427.91;8574298;33;20599;-73
2022/03/19 23:23:58;;;;;;;35.80;19.60;;;;;;;4.51;48.92;102417.25;8573637;33;20400;-73
2022/03/19 23:29:01;;;;;;;31.58;17.65;;;;;;;4.55;48.06;102420.72;8572624;33;20372;-73
2022/03/19 23:34:06;;;;;;;31.23;19.38;;;;;;;4.55;48.58;102412.72;8573670;33;20405;-73
2022/03/19 23:39:11;;;;;;;28.55;17.70;;;;;;;4.43;48.70;102413.88;8573372;33;21693;-73
2022/03/19 23:44:14;;;;;;;31.15;18.02;;;;;;;4.33;48.90;102409.69;8572402;33;20451;-73
2022/03/19 23:49:19;;;;;;;31.33;18.38;;;;;;;4.24;49.28;102408.09;8568026;33;20421;-73